createdAt,value
2019-04-01T00:01:20.016Z,8.60
2019-04-01T00:03:49.539Z,9.67
2019-04-01T00:06:19.162Z,10.60
2019-04-01T00:08:48.758Z,11.17
2019-04-01T00:11:17.690Z,12.13
2019-04-01T00:13:46.533Z,12.63
2019-04-01T00:16:15.451Z,11.53
2019-04-01T00:18:44.606Z,11.83
2019-04-01T00:21:14.007Z,12.47
2019-04-01T00:23:43.515Z,12.53
2019-04-01T00:26:12.602Z,12.33
2019-04-01T00:28:41.930Z,13.20
2019-04-01T00:31:11.040Z,13.97
2019-04-01T00:33:40.509Z,12.87
2019-04-01T00:36:09.947Z,12.87
2019-04-01T00:38:38.790Z,12.93
2019-04-01T00:41:08.406Z,13.40
2019-04-01T00:43:57.579Z,13.13
2019-04-01T00:46:27.151Z,14.27
2019-04-01T00:48:56.310Z,13.40
2019-04-01T00:51:26.239Z,15.27
2019-04-01T00:53:55.974Z,12.23
2019-04-01T00:56:25.115Z,11.80
2019-04-01T00:58:54.030Z,13.60
2019-04-01T01:01:23.582Z,12.30
2019-04-01T01:03:53.172Z,14.97
2019-04-01T01:06:22.323Z,9.77
2019-04-01T01:08:51.435Z,10.00
2019-04-01T01:11:20.629Z,10.70
2019-04-01T01:13:49.621Z,11.13
2019-04-01T01:16:19.434Z,10.47
2019-04-01T01:18:48.610Z,9.83
2019-04-01T01:21:18.279Z,12.07
2019-04-01T01:23:48.094Z,11.10
2019-04-01T01:26:17.365Z,13.13
2019-04-01T01:28:46.223Z,14.20
2019-04-01T01:31:15.146Z,13.37
2019-04-01T01:33:44.720Z,13.60
2019-04-01T01:36:13.907Z,13.53
2019-04-01T01:38:43.130Z,13.57
2019-04-01T01:41:12.250Z,15.27
2019-04-01T01:43:41.488Z,15.60
2019-04-01T01:46:10.386Z,15.80
2019-04-01T01:48:40.182Z,15.97
2019-04-01T01:51:09.931Z,15.90
2019-04-01T01:53:41.465Z,13.23
2019-04-01T01:56:09.558Z,12.73
2019-04-01T01:58:38.751Z,15.43
2019-04-01T02:01:07.872Z,14.97
2019-04-01T02:03:36.739Z,12.97
2019-04-01T02:06:05.735Z,15.73
2019-04-01T02:08:34.937Z,15.53
2019-04-01T02:11:04.519Z,16.03
2019-04-01T02:13:33.738Z,13.20
2019-04-01T02:16:02.879Z,15.27
2019-04-01T02:18:32.062Z,13.77
2019-04-01T02:21:01.579Z,14.40
2019-04-01T02:23:30.571Z,13.27
2019-04-01T02:25:59.435Z,13.30
2019-04-01T02:28:28.875Z,12.30
2019-04-01T02:30:57.959Z,14.00
2019-04-01T02:33:27.328Z,13.40
2019-04-01T02:35:56.446Z,13.73
2019-04-01T02:38:25.555Z,13.50
2019-04-01T02:40:54.398Z,12.67
2019-04-01T02:43:23.675Z,12.67
2019-04-01T02:45:52.597Z,13.17
2019-04-01T02:48:21.720Z,12.77
2019-04-01T02:50:50.923Z,13.30
2019-04-01T02:53:19.911Z,13.03
2019-04-01T02:55:49.226Z,13.03
2019-04-01T02:58:19.065Z,13.13
2019-04-01T03:00:48.245Z,12.40
2019-04-01T03:03:17.491Z,14.77
2019-04-01T03:05:46.835Z,14.87
2019-04-01T03:08:15.969Z,15.00
2019-04-01T03:10:45.540Z,14.97
2019-04-01T03:13:15.031Z,16.17
2019-04-01T03:15:44.424Z,18.50
2019-04-01T03:18:14.023Z,18.40
2019-04-01T03:20:43.228Z,16.57
2019-04-01T03:23:12.181Z,14.57
2019-04-01T03:25:41.626Z,13.77
2019-04-01T03:28:10.835Z,15.03
2019-04-01T03:30:40.424Z,15.60
2019-04-01T03:33:09.705Z,15.67
2019-04-01T03:35:38.932Z,15.13
2019-04-01T03:38:08.834Z,15.53
2019-04-01T03:40:38.667Z,17.20
2019-04-01T03:43:07.627Z,16.73
2019-04-01T03:45:37.366Z,17.43
2019-04-01T03:48:06.417Z,17.20
2019-04-01T03:50:35.263Z,17.40
2019-04-01T03:53:04.178Z,19.03
2019-04-01T03:55:34.032Z,18.73
2019-04-01T03:58:03.559Z,19.40
2019-04-01T04:00:33.106Z,19.17
2019-04-01T04:03:02.263Z,18.97
2019-04-01T04:05:31.484Z,18.90
2019-04-01T04:08:00.919Z,20.00
2019-04-01T04:10:29.848Z,19.60
2019-04-01T04:12:59.515Z,20.03
2019-04-01T04:15:29.078Z,20.83
2019-04-01T04:17:58.599Z,20.90
2019-04-01T04:20:28.080Z,22.00
2019-04-01T04:22:57.347Z,20.83
2019-04-01T04:25:26.665Z,22.03
2019-04-01T04:27:56.256Z,21.57
2019-04-01T04:30:25.586Z,20.27
2019-04-01T04:32:55.296Z,20.67
2019-04-01T04:35:24.148Z,22.37
2019-04-01T04:37:54.112Z,19.80
2019-04-01T04:40:23.507Z,20.93
2019-04-01T04:42:52.613Z,22.73
2019-04-01T04:45:22.319Z,22.33
2019-04-01T04:47:51.239Z,21.07
2019-04-01T04:50:20.514Z,21.10
2019-04-01T04:52:49.362Z,23.63
2019-04-01T04:55:18.269Z,19.77
2019-04-01T04:57:47.532Z,22.80
2019-04-01T05:00:16.931Z,23.97
2019-04-01T05:02:46.198Z,22.53
2019-04-01T05:05:15.301Z,25.13
2019-04-01T05:07:44.593Z,23.77
2019-04-01T05:10:13.779Z,21.53
2019-04-01T05:12:42.713Z,22.40
2019-04-01T05:15:11.707Z,24.23
2019-04-01T05:17:40.972Z,22.90
2019-04-01T05:20:10.818Z,24.63
2019-04-01T05:22:41.118Z,25.63
2019-04-01T05:25:10.720Z,25.83
2019-04-01T05:27:41.286Z,27.47
2019-04-01T05:30:11.150Z,27.53
2019-04-01T05:32:41.457Z,26.23
2019-04-01T05:35:10.443Z,27.07
2019-04-01T05:37:39.943Z,27.37
2019-04-01T05:40:09.933Z,25.43
2019-04-01T05:42:39.302Z,27.80
2019-04-01T05:45:09.166Z,26.67
2019-04-01T05:47:41.867Z,24.67
2019-04-01T05:50:11.407Z,24.67
2019-04-01T05:52:40.519Z,26.33
2019-04-01T05:55:09.425Z,24.97
2019-04-01T05:57:39.659Z,25.13
2019-04-01T06:00:10.863Z,25.23
2019-04-01T06:02:40.186Z,25.20
2019-04-01T06:05:09.311Z,24.07
2019-04-01T06:07:39.209Z,22.17
2019-04-01T06:10:09.396Z,22.00
2019-04-01T06:12:39.497Z,22.63
2019-04-01T06:15:08.834Z,21.33
2019-04-01T06:17:37.931Z,21.40
2019-04-01T06:20:07.072Z,20.83
2019-04-01T06:22:36.699Z,21.80
2019-04-01T06:25:06.219Z,24.20
2019-04-01T06:27:35.374Z,44.50
2019-04-01T06:30:04.982Z,36.10
2019-04-01T06:32:34.011Z,22.90
2019-04-01T06:35:03.055Z,22.27
2019-04-01T06:37:32.631Z,22.90
2019-04-01T06:40:02.219Z,24.20
2019-04-01T06:42:31.139Z,23.70
2019-04-01T06:45:01.030Z,23.17
2019-04-01T06:47:30.143Z,24.23
2019-04-01T06:49:59.419Z,24.70
2019-04-01T06:52:29.130Z,23.83
2019-04-01T06:54:58.913Z,22.90
2019-04-01T06:57:28.976Z,24.40
2019-04-01T06:59:58.136Z,24.37
2019-04-01T07:02:27.778Z,24.63
2019-04-01T07:04:57.407Z,23.67
2019-04-01T07:07:28.283Z,24.90
2019-04-01T07:09:57.987Z,26.30
2019-04-01T07:12:27.000Z,25.97
2019-04-01T07:14:56.730Z,24.47
2019-04-01T07:17:26.220Z,25.27
2019-04-01T07:19:56.004Z,25.60
2019-04-01T07:22:25.739Z,24.83
2019-04-01T07:24:54.786Z,25.17
2019-04-01T07:27:24.180Z,24.37
2019-04-01T07:29:53.522Z,26.33
2019-04-01T07:32:22.875Z,25.27
2019-04-01T07:34:52.744Z,24.80
2019-04-01T07:37:22.105Z,24.33
2019-04-01T07:39:51.390Z,25.17
2019-04-01T07:42:20.698Z,25.00
2019-04-01T07:44:50.243Z,24.47
2019-04-01T07:47:19.918Z,23.20
2019-04-01T07:49:49.144Z,23.87
2019-04-01T07:52:19.119Z,24.50
2019-04-01T07:54:48.054Z,22.80
2019-04-01T07:57:17.414Z,24.30
2019-04-01T07:59:46.717Z,24.80
2019-04-01T08:02:16.152Z,24.23
2019-04-01T08:04:45.781Z,25.67
2019-04-01T08:07:15.389Z,24.13
2019-04-01T08:09:44.585Z,25.10
2019-04-01T08:12:13.578Z,23.63
2019-04-01T08:14:42.648Z,25.83
2019-04-01T08:17:11.695Z,24.60
2019-04-01T08:19:41.084Z,24.60
2019-04-01T08:22:10.551Z,24.37
2019-04-01T08:24:40.660Z,23.73
2019-04-01T08:27:10.028Z,25.57
2019-04-01T08:29:39.666Z,24.67
2019-04-01T08:32:08.911Z,26.50
2019-04-01T08:34:38.401Z,23.83
2019-04-01T08:37:08.682Z,21.93
2019-04-01T08:39:38.188Z,23.93
2019-04-01T08:42:07.318Z,25.00
2019-04-01T08:44:37.119Z,25.47
2019-04-01T08:47:06.535Z,25.20
2019-04-01T08:49:36.137Z,24.83
2019-04-01T08:52:05.518Z,24.33
2019-04-01T08:54:34.581Z,24.83
2019-04-01T08:57:03.879Z,24.43
2019-04-01T08:59:32.915Z,25.33
2019-04-01T09:02:16.728Z,25.27
2019-04-01T09:04:34.620Z,24.60
2019-04-01T09:07:04.146Z,24.30
2019-04-01T09:09:34.513Z,25.53
2019-04-01T09:12:03.810Z,24.17
2019-04-01T09:14:33.418Z,26.63
2019-04-01T09:17:02.951Z,24.70
2019-04-01T09:19:32.096Z,25.57
2019-04-01T09:22:01.575Z,24.30
2019-04-01T09:24:30.970Z,24.87
2019-04-01T09:27:00.383Z,22.90
2019-04-01T09:29:30.195Z,23.70
2019-04-01T09:31:59.443Z,24.67
2019-04-01T09:34:28.778Z,24.30
2019-04-01T09:36:58.811Z,25.23
2019-04-01T09:39:28.327Z,23.97
2019-04-01T09:41:57.525Z,24.17
2019-04-01T09:44:36.822Z,23.00
2019-04-01T09:46:57.278Z,23.23
2019-04-01T09:49:26.690Z,25.60
2019-04-01T09:51:56.378Z,24.57
2019-04-01T09:54:25.955Z,23.50
2019-04-01T09:56:55.499Z,23.50
2019-04-01T09:59:25.034Z,23.27
2019-04-01T10:01:54.443Z,23.10
2019-04-01T10:04:23.697Z,22.77
2019-04-01T10:06:53.418Z,23.40
2019-04-01T10:09:22.831Z,23.00
2019-04-01T10:11:52.045Z,22.67
2019-04-01T10:14:21.371Z,22.67
2019-04-01T10:16:50.251Z,23.47
2019-04-01T10:19:20.716Z,23.50
2019-04-01T10:21:50.367Z,23.30
2019-04-01T10:24:20.095Z,24.07
2019-04-01T10:26:49.251Z,22.20
2019-04-01T10:29:18.642Z,23.57
2019-04-01T10:31:47.730Z,23.60
2019-04-01T10:34:17.538Z,23.80
2019-04-01T10:36:46.574Z,23.60
2019-04-01T10:39:15.506Z,23.20
2019-04-01T10:41:46.285Z,24.33
2019-04-01T10:44:15.579Z,22.63
2019-04-01T10:46:45.046Z,23.53
2019-04-01T10:49:14.553Z,23.30
2019-04-01T10:51:44.149Z,24.50
2019-04-01T10:54:13.886Z,23.93
2019-04-01T10:56:43.147Z,22.37
2019-04-01T10:59:12.019Z,23.60
2019-04-01T11:01:41.786Z,22.67
2019-04-01T11:04:11.071Z,22.60
2019-04-01T11:06:40.838Z,24.07
2019-04-01T11:09:10.944Z,23.33
2019-04-01T11:11:40.080Z,22.37
2019-04-01T11:14:09.766Z,22.77
2019-04-01T11:16:39.067Z,23.13
2019-04-01T11:19:09.329Z,22.67
2019-04-01T11:21:39.583Z,22.53
2019-04-01T11:24:08.649Z,23.63
2019-04-01T11:26:37.704Z,23.17
2019-04-01T11:29:06.585Z,23.50
2019-04-01T11:31:36.340Z,23.20
2019-04-01T11:34:05.996Z,23.10
2019-04-01T11:36:34.975Z,22.90
2019-04-01T11:39:06.564Z,23.07
2019-04-01T11:41:36.222Z,23.13
2019-04-01T11:44:05.377Z,22.73
2019-04-01T11:46:35.178Z,22.80
2019-04-01T11:49:04.530Z,22.20
2019-04-01T11:51:39.571Z,23.37
2019-04-01T11:54:08.025Z,22.13
2019-04-01T11:56:36.484Z,24.00
2019-04-01T11:59:06.012Z,23.70
2019-04-01T12:01:36.844Z,22.20
2019-04-01T12:04:06.259Z,21.73
2019-04-01T12:06:35.758Z,23.40
2019-04-01T12:09:06.503Z,24.67
2019-04-01T12:11:35.691Z,23.33
2019-04-01T12:14:05.330Z,20.37
2019-04-01T12:16:34.356Z,22.50
2019-04-01T12:19:03.710Z,21.27
2019-04-01T12:21:33.031Z,21.73
2019-04-01T12:24:02.239Z,21.83
2019-04-01T12:26:31.430Z,21.67
2019-04-01T12:29:00.863Z,21.73
2019-04-01T12:31:30.539Z,21.07
2019-04-01T12:33:59.368Z,21.57
2019-04-01T12:36:28.713Z,20.40
2019-04-01T12:38:57.794Z,21.67
2019-04-01T12:41:26.997Z,20.23
2019-04-01T12:43:56.507Z,20.33
2019-04-01T12:46:26.443Z,20.77
2019-04-01T12:48:56.187Z,19.33
2019-04-01T12:51:25.838Z,20.47
2019-04-01T12:53:55.075Z,19.47
2019-04-01T12:56:24.156Z,21.40
2019-04-01T12:58:53.906Z,20.00
2019-04-01T13:01:23.969Z,21.60
2019-04-01T13:03:53.363Z,19.83
2019-04-01T13:06:22.892Z,20.80
2019-04-01T13:08:53.552Z,20.40
2019-04-01T13:11:23.138Z,19.30
2019-04-01T13:13:52.612Z,19.03
2019-04-01T13:16:22.012Z,18.17
2019-04-01T13:18:51.426Z,17.53
2019-04-01T13:21:20.825Z,19.07
2019-04-01T13:23:50.348Z,20.57
2019-04-01T13:26:19.938Z,19.00
2019-04-01T13:28:49.442Z,19.03
2019-04-01T13:31:18.771Z,18.83
2019-04-01T13:33:48.179Z,17.13
2019-04-01T13:36:17.521Z,17.97
2019-04-01T13:38:46.744Z,17.97
2019-04-01T13:41:15.897Z,17.87
2019-04-01T13:43:45.487Z,13.77
2019-04-01T13:46:14.919Z,13.83
2019-04-01T13:48:57.084Z,12.97
2019-04-01T13:51:15.221Z,13.63
2019-04-01T13:53:44.636Z,12.47
2019-04-01T13:56:13.502Z,12.87
2019-04-01T13:58:42.448Z,13.17
2019-04-01T14:01:11.996Z,12.97
2019-04-01T14:03:41.917Z,12.33
2019-04-01T14:06:10.847Z,13.43
2019-04-01T14:08:40.412Z,14.03
2019-04-01T14:11:09.375Z,14.13
2019-04-01T14:13:39.144Z,15.27
2019-04-01T14:16:09.308Z,12.97
2019-04-01T14:18:38.511Z,14.90
2019-04-01T14:21:15.960Z,14.80
2019-04-01T14:23:39.563Z,15.00
2019-04-01T14:26:08.900Z,15.33
2019-04-01T14:28:38.553Z,14.70
2019-04-01T14:31:08.115Z,15.63
2019-04-01T14:33:37.543Z,15.73
2019-04-01T14:36:06.813Z,16.07
2019-04-01T14:38:35.975Z,16.80
2019-04-01T14:41:05.208Z,16.10
2019-04-01T14:43:34.234Z,16.27
2019-04-01T14:46:03.624Z,15.60
2019-04-01T14:48:32.815Z,16.50
2019-04-01T14:51:02.290Z,16.97
2019-04-01T14:53:32.242Z,17.07
2019-04-01T14:56:01.542Z,17.33
2019-04-01T14:58:31.387Z,16.40
2019-04-01T15:01:01.411Z,16.77
2019-04-01T15:03:31.577Z,17.43
2019-04-01T15:06:00.963Z,17.63
2019-04-01T15:08:30.650Z,17.13
2019-04-01T15:10:59.590Z,17.10
2019-04-01T15:13:29.051Z,16.60
2019-04-01T15:15:58.035Z,16.23
2019-04-01T15:18:26.984Z,16.17
2019-04-01T15:20:56.882Z,16.70
2019-04-01T15:23:27.281Z,17.73
2019-04-01T15:25:57.287Z,17.10
2019-04-01T15:28:26.448Z,17.60
2019-04-01T15:30:56.568Z,17.60
2019-04-01T15:33:26.138Z,17.90
2019-04-01T15:35:55.466Z,18.73
2019-04-01T15:38:25.411Z,17.53
2019-04-01T15:40:58.134Z,16.93
2019-04-01T15:43:26.003Z,18.73
2019-04-01T15:45:55.554Z,16.43
2019-04-01T15:48:24.634Z,17.27
2019-04-01T15:50:53.782Z,18.17
2019-04-01T15:53:23.612Z,18.10
2019-04-01T15:55:52.544Z,18.30
2019-04-01T15:58:21.622Z,17.87
2019-04-01T16:00:51.132Z,18.27
2019-04-01T16:03:20.738Z,17.93
2019-04-01T16:05:49.951Z,17.97
2019-04-01T16:08:19.059Z,18.23
2019-04-01T16:10:50.169Z,17.50
2019-04-01T16:13:19.927Z,17.27
2019-04-01T16:15:49.301Z,17.10
2019-04-01T16:18:18.887Z,16.97
2019-04-01T16:20:48.060Z,18.03
2019-04-01T16:23:17.233Z,19.33
2019-04-01T16:25:47.510Z,17.73
2019-04-01T16:28:17.087Z,18.53
2019-04-01T16:30:45.955Z,18.60
2019-04-01T16:33:15.683Z,18.00
2019-04-01T16:35:44.599Z,19.03
2019-04-01T16:38:14.119Z,17.50
2019-04-01T16:40:43.419Z,17.63
2019-04-01T16:43:13.220Z,18.83
2019-04-01T16:45:43.057Z,18.33
2019-04-01T16:48:12.659Z,18.67
2019-04-01T16:50:41.783Z,19.50
2019-04-01T16:53:10.700Z,19.47
2019-04-01T16:55:40.360Z,19.53
2019-04-01T16:58:09.218Z,19.13
2019-04-01T17:00:38.596Z,19.33
2019-04-01T17:03:08.016Z,19.67
2019-04-01T17:05:37.199Z,20.23
2019-04-01T17:08:06.738Z,20.27
2019-04-01T17:10:36.256Z,19.93
2019-04-01T17:13:07.628Z,19.20
2019-04-01T17:15:37.220Z,19.37
2019-04-01T17:18:06.455Z,21.17
2019-04-01T17:20:36.633Z,17.90
2019-04-01T17:23:05.917Z,20.13
2019-04-01T17:25:34.898Z,18.00
2019-04-01T17:28:04.455Z,20.33
2019-04-01T17:30:33.865Z,19.47
2019-04-01T17:33:04.166Z,18.37
2019-04-01T17:35:33.333Z,19.23
2019-04-01T17:38:02.774Z,18.40
2019-04-01T17:40:31.623Z,20.37
2019-04-01T17:43:00.892Z,20.17
2019-04-01T17:45:35.989Z,21.23
2019-04-01T17:48:06.000Z,22.33
2019-04-01T17:50:35.722Z,22.63
2019-04-01T17:53:07.480Z,20.03
2019-04-01T17:55:37.399Z,16.60
2019-04-01T17:58:07.083Z,18.07
2019-04-01T18:00:38.922Z,18.23
2019-04-01T18:03:09.466Z,19.40
2019-04-01T18:05:38.526Z,17.73
2019-04-01T18:08:07.912Z,19.77
2019-04-01T18:10:37.343Z,20.77
2019-04-01T18:13:06.599Z,23.83
2019-04-01T18:15:35.652Z,26.53
2019-04-01T18:18:05.004Z,25.17
2019-04-01T18:20:34.716Z,23.90
2019-04-01T18:23:03.974Z,25.13
2019-04-01T18:25:33.498Z,23.97
2019-04-01T18:28:02.668Z,18.40
2019-04-01T18:30:32.527Z,18.60
2019-04-01T18:33:02.478Z,17.97
2019-04-01T18:35:31.875Z,20.80
2019-04-01T18:38:01.304Z,19.23
2019-04-01T18:40:33.016Z,19.77
2019-04-01T18:43:01.556Z,19.03
2019-04-01T18:45:31.362Z,20.57
2019-04-01T18:48:01.203Z,21.50
2019-04-01T18:50:30.118Z,22.23
2019-04-01T18:52:59.538Z,23.70
2019-04-01T18:55:28.695Z,21.43
2019-04-01T18:57:58.022Z,20.43
2019-04-01T19:00:27.103Z,19.87
2019-04-01T19:02:56.602Z,22.20
2019-04-01T19:05:25.935Z,22.10
2019-04-01T19:07:55.123Z,22.43
2019-04-01T19:10:24.374Z,22.37
2019-04-01T19:13:05.048Z,23.00
2019-04-01T19:15:25.645Z,21.73
2019-04-01T19:17:55.492Z,22.47
2019-04-01T19:20:24.723Z,21.90
2019-04-01T19:22:54.259Z,23.00
2019-04-01T19:25:23.507Z,21.53
2019-04-01T19:27:53.054Z,21.53
2019-04-01T19:30:22.347Z,23.03
2019-04-01T19:32:52.126Z,22.03
2019-04-01T19:35:21.786Z,21.87
2019-04-01T19:37:51.410Z,22.70
2019-04-01T19:40:22.054Z,23.27
2019-04-01T19:42:52.075Z,23.33
2019-04-01T19:45:22.001Z,20.90
2019-04-01T19:47:51.949Z,21.67
2019-04-01T19:50:21.416Z,21.00
2019-04-01T19:52:51.092Z,21.90
2019-04-01T19:55:20.351Z,24.30
2019-04-01T19:57:49.598Z,20.07
2019-04-01T20:00:27.628Z,21.23
2019-04-01T20:02:50.519Z,21.93
2019-04-01T20:05:20.178Z,21.63
2019-04-01T20:07:50.075Z,21.27
2019-04-01T20:10:19.545Z,21.23
2019-04-01T20:12:50.839Z,22.33
2019-04-01T20:15:19.670Z,23.57
2019-04-01T20:17:48.599Z,22.33
2019-04-01T20:20:18.119Z,21.77
2019-04-01T20:22:47.555Z,23.90
2019-04-01T20:25:17.424Z,23.37
2019-04-01T20:27:46.690Z,23.07
2019-04-01T20:30:16.223Z,22.40
2019-04-01T20:32:45.391Z,23.77
2019-04-01T20:35:23.278Z,21.97
2019-04-01T20:37:46.252Z,22.93
2019-04-01T20:40:15.611Z,22.23
2019-04-01T20:42:46.431Z,22.23
2019-04-01T20:45:15.991Z,22.73
2019-04-01T20:47:45.174Z,22.90
2019-04-01T20:50:14.671Z,22.03
2019-04-01T20:52:43.908Z,21.80
2019-04-01T20:55:13.506Z,22.47
2019-04-01T20:57:42.878Z,25.10
2019-04-01T21:00:12.228Z,22.80
2019-04-01T21:02:41.632Z,22.43
2019-04-01T21:05:10.724Z,22.83
2019-04-01T21:07:39.794Z,21.93
2019-04-01T21:10:09.335Z,22.57
2019-04-01T21:12:38.755Z,21.90
2019-04-01T21:15:08.162Z,22.57
2019-04-01T21:17:37.091Z,22.17
2019-04-01T21:20:07.003Z,23.87
2019-04-01T21:22:37.384Z,23.97
2019-04-01T21:25:06.969Z,23.73
2019-04-01T21:27:36.302Z,22.10
2019-04-01T21:30:06.418Z,24.00
2019-04-01T21:32:35.786Z,23.50
2019-04-01T21:35:05.361Z,23.73
2019-04-01T21:37:35.182Z,23.23
2019-04-01T21:40:05.506Z,23.03
2019-04-01T21:42:35.211Z,22.30
2019-04-01T21:45:04.745Z,24.40
2019-04-01T21:47:33.967Z,23.23
2019-04-01T21:50:02.967Z,23.37
2019-04-01T21:52:33.153Z,24.90
2019-04-01T21:55:03.239Z,22.20
2019-04-01T21:57:32.954Z,23.33
2019-04-01T22:00:02.570Z,22.63
2019-04-01T22:02:36.126Z,22.73
2019-04-01T22:05:02.711Z,23.53
2019-04-01T22:07:31.651Z,22.50
2019-04-01T22:10:00.839Z,22.87
2019-04-01T22:12:29.755Z,22.90
2019-04-01T22:14:58.978Z,22.80
2019-04-01T22:17:28.207Z,23.53
2019-04-01T22:19:57.682Z,23.23
2019-04-01T22:22:26.906Z,23.00
2019-04-01T22:24:55.761Z,23.03
2019-04-01T22:27:25.418Z,22.37
2019-04-01T22:29:56.421Z,23.20
2019-04-01T22:32:25.657Z,22.00
2019-04-01T22:34:54.823Z,22.07
2019-04-01T22:37:27.342Z,23.90
2019-04-01T22:39:55.073Z,21.73
2019-04-01T22:42:26.223Z,22.80
2019-04-01T22:44:57.459Z,22.10
2019-04-01T22:47:26.542Z,24.43
2019-04-01T22:49:55.713Z,22.27
2019-04-01T22:52:24.786Z,24.47
2019-04-01T22:54:54.290Z,24.37
2019-04-01T22:57:24.193Z,23.90
2019-04-01T22:59:53.670Z,22.93
2019-04-01T23:02:23.030Z,24.90
2019-04-01T23:04:52.605Z,23.93
2019-04-01T23:07:21.814Z,22.90
2019-04-01T23:09:51.101Z,21.17
2019-04-01T23:12:22.241Z,22.17
2019-04-01T23:14:51.450Z,22.77
2019-04-01T23:17:21.094Z,23.83
2019-04-01T23:19:50.127Z,23.20
2019-04-01T23:22:19.257Z,23.73
2019-04-01T23:24:48.881Z,22.00
2019-04-01T23:27:18.868Z,22.87
2019-04-01T23:29:48.863Z,22.40
2019-04-01T23:32:18.048Z,22.27
2019-04-01T23:34:47.294Z,23.00
2019-04-01T23:37:16.894Z,22.23
2019-04-01T23:39:46.679Z,22.23
2019-04-01T23:42:15.833Z,22.87
2019-04-01T23:44:44.691Z,22.37
2019-04-01T23:47:13.523Z,24.30
2019-04-01T23:49:42.652Z,21.63
2019-04-01T23:52:12.462Z,23.83
2019-04-01T23:54:41.652Z,21.37
2019-04-01T23:57:11.107Z,21.60
2019-04-01T23:59:40.475Z,22.97
